sensor_id;sensor_type;location;lat;lon;timestamp;pressure;altitude;pressure_sealevel;temperature;humidity
64298;BME280;50639;53.270;7.956;2023-03-03T00:01:27;102826.50;;;3.35;100.00
64298;BME280;50639;53.270;7.956;2023-03-03T00:03:52;103011.47;;;3.28;100.00
64298;BME280;50639;53.270;7.956;2023-03-03T00:06:18;102673.47;;;3.12;100.00
64298;BME280;50639;53.270;7.956;2023-03-03T00:08:44;103061.50;;;3.23;100.00
64298;BME280;50639;53.270;7.956;2023-03-03T00:11:09;102886.03;;;3.23;100.00
64298;BME280;50639;53.270;7.956;2023-03-03T00:13:38;102770.31;;;3.19;100.00
64298;BME280;50639;53.270;7.956;2023-03-03T00:16:15;102781.81;;;3.20;100.00
64298;BME280;50639;53.270;7.956;2023-03-03T00:18:42;102824.06;;;3.23;100.00
64298;BME280;50639;53.270;7.956;2023-03-03T00:23:44;102947.44;;;3.20;100.00
64298;BME280;50639;53.270;7.956;2023-03-03T00:26:17;102463.38;;;2.95;100.00
64298;BME280;50639;53.270;7.956;2023-03-03T00:28:49;102684.06;;;3.03;100.00
64298;BME280;50639;53.270;7.956;2023-03-03T00:31:19;103130.97;;;3.30;100.00
64298;BME280;50639;53.270;7.956;2023-03-03T00:33:53;103174.56;;;3.50;100.00
64298;BME280;50639;53.270;7.956;2023-03-03T00:36:41;103331.13;;;3.65;100.00
64298;BME280;50639;53.270;7.956;2023-03-03T00:41:42;103336.09;;;3.70;100.00
64298;BME280;50639;53.270;7.956;2023-03-03T00:46:50;102942.06;;;3.52;100.00
64298;BME280;50639;53.270;7.956;2023-03-03T00:49:25;102646.09;;;3.31;100.00
64298;BME280;50639;53.270;7.956;2023-03-03T00:51:52;103019.16;;;3.43;100.00
64298;BME280;50639;53.270;7.956;2023-03-03T00:54:17;103053.44;;;3.46;100.00
64298;BME280;50639;53.270;7.956;2023-03-03T00:56:43;103151.94;;;3.55;100.00
64298;BME280;50639;53.270;7.956;2023-03-03T00:59:09;103043.28;;;3.51;100.00
64298;BME280;50639;53.270;7.956;2023-03-03T01:01:34;103100.69;;;3.53;100.00
64298;BME280;50639;53.270;7.956;2023-03-03T01:03:59;103101.78;;;3.51;100.00
64298;BME280;50639;53.270;7.956;2023-03-03T01:06:25;103213.72;;;3.59;100.00
64298;BME280;50639;53.270;7.956;2023-03-03T01:08:50;102804.84;;;3.40;100.00
64298;BME280;50639;53.270;7.956;2023-03-03T01:11:20;103372.97;;;3.63;100.00
64298;BME280;50639;53.270;7.956;2023-03-03T01:13:46;103447.63;;;3.73;100.00
64298;BME280;50639;53.270;7.956;2023-03-03T01:16:12;103563.13;;;3.81;100.00
64298;BME280;50639;53.270;7.956;2023-03-03T01:18:38;103271.28;;;3.71;100.00
64298;BME280;50639;53.270;7.956;2023-03-03T01:21:05;103391.59;;;3.74;100.00
64298;BME280;50639;53.270;7.956;2023-03-03T01:23:31;103374.56;;;3.77;100.00
64298;BME280;50639;53.270;7.956;2023-03-03T01:25:56;103309.34;;;3.71;100.00
64298;BME280;50639;53.270;7.956;2023-03-03T01:28:22;103617.00;;;3.85;100.00
64298;BME280;50639;53.270;7.956;2023-03-03T01:30:47;103497.44;;;3.82;100.00
64298;BME280;50639;53.270;7.956;2023-03-03T01:33:13;103364.88;;;3.76;100.00
64298;BME280;50639;53.270;7.956;2023-03-03T01:35:42;103669.16;;;3.87;100.00
64298;BME280;50639;53.270;7.956;2023-03-03T01:38:07;103643.28;;;3.89;100.00
64298;BME280;50639;53.270;7.956;2023-03-03T01:40:33;103819.25;;;3.97;100.00
64298;BME280;50639;53.270;7.956;2023-03-03T01:42:59;103714.56;;;3.97;100.00
64298;BME280;50639;53.270;7.956;2023-03-03T01:45:26;103737.53;;;3.98;100.00
64298;BME280;50639;53.270;7.956;2023-03-03T01:47:56;103705.84;;;3.95;100.00
64298;BME280;50639;53.270;7.956;2023-03-03T01:50:28;103966.19;;;4.02;100.00
64298;BME280;50639;53.270;7.956;2023-03-03T01:52:55;104004.94;;;4.06;100.00
64298;BME280;50639;53.270;7.956;2023-03-03T01:55:23;103890.69;;;4.03;100.00
64298;BME280;50639;53.270;7.956;2023-03-03T01:57:58;103906.53;;;4.05;100.00
64298;BME280;50639;53.270;7.956;2023-03-03T02:00:25;103872.88;;;4.04;100.00
64298;BME280;50639;53.270;7.956;2023-03-03T02:02:51;103614.47;;;3.94;100.00
64298;BME280;50639;53.270;7.956;2023-03-03T02:05:17;103485.38;;;3.89;100.00
64298;BME280;50639;53.270;7.956;2023-03-03T02:07:42;103303.16;;;3.82;100.00
64298;BME280;50639;53.270;7.956;2023-03-03T02:10:14;103508.59;;;3.87;100.00
64298;BME280;50639;53.270;7.956;2023-03-03T02:12:44;102985.28;;;3.65;100.00
64298;BME280;50639;53.270;7.956;2023-03-03T02:17:47;102921.13;;;3.59;100.00
64298;BME280;50639;53.270;7.956;2023-03-03T02:22:50;102878.09;;;3.54;100.00
64298;BME280;50639;53.270;7.956;2023-03-03T02:25:24;102556.31;;;3.34;100.00
64298;BME280;50639;53.270;7.956;2023-03-03T02:27:52;102633.25;;;3.26;100.00
64298;BME280;50639;53.270;7.956;2023-03-03T02:30:19;102942.41;;;3.38;100.00
64298;BME280;50639;53.270;7.956;2023-03-03T02:32:45;102799.22;;;3.33;100.00
64298;BME280;50639;53.270;7.956;2023-03-03T02:37:49;102916.19;;;3.33;100.00
64298;BME280;50639;53.270;7.956;2023-03-03T02:40:15;103006.09;;;3.39;100.00
64298;BME280;50639;53.270;7.956;2023-03-03T02:42:44;102590.53;;;3.18;100.00
64298;BME280;50639;53.270;7.956;2023-03-03T02:45:10;102643.56;;;3.20;100.00
64298;BME280;50639;53.270;7.956;2023-03-03T02:47:35;102748.34;;;3.17;100.00
64298;BME280;50639;53.270;7.956;2023-03-03T02:50:00;102817.91;;;3.22;100.00
64298;BME280;50639;53.270;7.956;2023-03-03T02:52:26;103276.38;;;3.41;100.00
64298;BME280;50639;53.270;7.956;2023-03-03T02:54:51;103192.00;;;3.43;100.00
64298;BME280;50639;53.270;7.956;2023-03-03T02:57:17;103425.09;;;3.55;100.00
64298;BME280;50639;53.270;7.956;2023-03-03T02:59:42;103141.34;;;3.44;100.00
64298;BME280;50639;53.270;7.956;2023-03-03T03:02:14;102790.53;;;3.31;100.00
64298;BME280;50639;53.270;7.956;2023-03-03T03:04:40;103244.94;;;3.46;100.00
64298;BME280;50639;53.270;7.956;2023-03-03T03:07:08;103457.03;;;3.55;100.00
64298;BME280;50639;53.270;7.956;2023-03-03T03:09:35;103202.97;;;3.49;100.00
64298;BME280;50639;53.270;7.956;2023-03-03T03:12:00;103472.72;;;3.58;100.00
64298;BME280;50639;53.270;7.956;2023-03-03T03:14:28;103520.41;;;3.61;100.00
64298;BME280;50639;53.270;7.956;2023-03-03T03:16:54;103560.06;;;3.64;100.00
64298;BME280;50639;53.270;7.956;2023-03-03T03:19:19;103621.03;;;3.67;100.00
64298;BME280;50639;53.270;7.956;2023-03-03T03:21:46;103601.56;;;3.66;100.00
64298;BME280;50639;53.270;7.956;2023-03-03T03:24:11;103261.13;;;3.54;100.00
64298;BME280;50639;53.270;7.956;2023-03-03T03:26:40;103324.00;;;3.55;100.00
64298;BME280;50639;53.270;7.956;2023-03-03T03:29:06;103222.56;;;3.48;100.00
64298;BME280;50639;53.270;7.956;2023-03-03T03:31:32;103339.34;;;3.51;100.00
64298;BME280;50639;53.270;7.956;2023-03-03T03:33:58;103365.13;;;3.51;100.00
64298;BME280;50639;53.270;7.956;2023-03-03T03:36:25;103224.63;;;3.45;100.00
64298;BME280;50639;53.270;7.956;2023-03-03T03:38:53;103493.63;;;3.51;100.00
64298;BME280;50639;53.270;7.956;2023-03-03T03:41:18;103725.25;;;3.61;100.00
64298;BME280;50639;53.270;7.956;2023-03-03T03:43:43;103479.25;;;3.54;100.00
64298;BME280;50639;53.270;7.956;2023-03-03T03:46:09;103427.25;;;3.50;100.00
64298;BME280;50639;53.270;7.956;2023-03-03T03:48:34;103424.72;;;3.48;100.00
64298;BME280;50639;53.270;7.956;2023-03-03T03:51:02;103518.53;;;3.50;100.00
64298;BME280;50639;53.270;7.956;2023-03-03T03:53:28;103380.69;;;3.44;100.00
64298;BME280;50639;53.270;7.956;2023-03-03T03:55:54;103226.22;;;3.36;100.00
64298;BME280;50639;53.270;7.956;2023-03-03T03:58:19;103565.81;;;3.47;100.00
64298;BME280;50639;53.270;7.956;2023-03-03T04:01:00;102865.75;;;3.22;100.00
64298;BME280;50639;53.270;7.956;2023-03-03T04:03:26;103419.13;;;3.40;100.00
64298;BME280;50639;53.270;7.956;2023-03-03T04:05:52;103267.91;;;3.35;100.00
64298;BME280;50639;53.270;7.956;2023-03-03T04:08:18;102973.53;;;3.26;100.00
64298;BME280;50639;53.270;7.956;2023-03-03T04:10:45;102716.41;;;3.08;100.00
64298;BME280;50639;53.270;7.956;2023-03-03T04:13:10;103025.50;;;3.19;100.00
64298;BME280;50639;53.270;7.956;2023-03-03T04:15:35;103298.72;;;3.27;100.00
64298;BME280;50639;53.270;7.956;2023-03-03T04:18:02;103007.84;;;3.18;100.00
64298;BME280;50639;53.270;7.956;2023-03-03T04:20:28;102775.25;;;3.03;100.00
64298;BME280;50639;53.270;7.956;2023-03-03T04:22:54;102767.44;;;3.02;100.00
64298;BME280;50639;53.270;7.956;2023-03-03T04:25:21;102883.50;;;3.01;100.00
64298;BME280;50639;53.270;7.956;2023-03-03T04:27:47;102982.56;;;3.03;100.00
64298;BME280;50639;53.270;7.956;2023-03-03T04:30:15;103338.47;;;3.17;100.00
64298;BME280;50639;53.270;7.956;2023-03-03T04:32:42;103195.16;;;3.14;100.00
64298;BME280;50639;53.270;7.956;2023-03-03T04:35:10;103056.69;;;3.06;100.00
64298;BME280;50639;53.270;7.956;2023-03-03T04:37:39;103131.84;;;3.08;100.00
64298;BME280;50639;53.270;7.956;2023-03-03T04:40:06;103170.75;;;3.09;100.00
64298;BME280;50639;53.270;7.956;2023-03-03T04:42:34;102973.00;;;3.01;100.00
64298;BME280;50639;53.270;7.956;2023-03-03T04:45:00;102913.97;;;2.97;100.00
64298;BME280;50639;53.270;7.956;2023-03-03T04:47:26;102618.28;;;2.86;100.00
64298;BME280;50639;53.270;7.956;2023-03-03T04:49:51;102682.50;;;2.70;100.00
64298;BME280;50639;53.270;7.956;2023-03-03T04:52:17;102805.84;;;2.77;100.00
64298;BME280;50639;53.270;7.956;2023-03-03T04:54:43;102832.16;;;2.80;100.00
64298;BME280;50639;53.270;7.956;2023-03-03T04:57:09;103058.19;;;2.88;100.00
64298;BME280;50639;53.270;7.956;2023-03-03T04:59:35;103104.94;;;2.91;100.00
64298;BME280;50639;53.270;7.956;2023-03-03T05:02:01;102825.16;;;2.79;100.00
64298;BME280;50639;53.270;7.956;2023-03-03T05:04:28;102889.78;;;2.80;100.00
64298;BME280;50639;53.270;7.956;2023-03-03T05:06:54;103057.59;;;2.85;100.00
64298;BME280;50639;53.270;7.956;2023-03-03T05:09:21;103120.41;;;2.86;100.00
64298;BME280;50639;53.270;7.956;2023-03-03T05:11:46;103158.44;;;2.86;100.00
64298;BME280;50639;53.270;7.956;2023-03-03T05:14:12;102917.44;;;2.77;100.00
64298;BME280;50639;53.270;7.956;2023-03-03T05:16:37;103000.72;;;2.76;100.00
64298;BME280;50639;53.270;7.956;2023-03-03T05:19:03;103219.78;;;2.83;100.00
64298;BME280;50639;53.270;7.956;2023-03-03T05:21:28;102802.81;;;2.61;100.00
64298;BME280;50639;53.270;7.956;2023-03-03T05:23:54;103012.13;;;2.67;100.00
64298;BME280;50639;53.270;7.956;2023-03-03T05:26:19;103220.50;;;2.74;100.00
64298;BME280;50639;53.270;7.956;2023-03-03T05:28:44;103148.03;;;2.72;100.00
64298;BME280;50639;53.270;7.956;2023-03-03T05:31:10;103049.28;;;2.67;100.00
64298;BME280;50639;53.270;7.956;2023-03-03T05:33:35;102995.59;;;2.64;100.00
64298;BME280;50639;53.270;7.956;2023-03-03T05:36:01;102921.72;;;2.58;100.00
64298;BME280;50639;53.270;7.956;2023-03-03T05:38:26;103020.81;;;2.58;100.00
64298;BME280;50639;53.270;7.956;2023-03-03T05:40:52;103125.22;;;2.59;100.00
64298;BME280;50639;53.270;7.956;2023-03-03T05:43:18;102897.56;;;2.49;100.00
64298;BME280;50639;53.270;7.956;2023-03-03T05:45:44;102851.00;;;2.45;100.00
64298;BME280;50639;53.270;7.956;2023-03-03T05:48:09;103057.75;;;2.50;100.00
64298;BME280;50639;53.270;7.956;2023-03-03T05:50:35;103002.25;;;2.47;100.00
64298;BME280;50639;53.270;7.956;2023-03-03T05:53:00;102832.19;;;2.37;100.00
64298;BME280;50639;53.270;7.956;2023-03-03T05:55:27;102794.00;;;2.29;100.00
64298;BME280;50639;53.270;7.956;2023-03-03T05:57:52;102741.28;;;2.24;100.00
64298;BME280;50639;53.270;7.956;2023-03-03T06:00:18;102959.53;;;2.28;100.00
64298;BME280;50639;53.270;7.956;2023-03-03T06:02:43;103060.25;;;2.29;100.00
64298;BME280;50639;53.270;7.956;2023-03-03T06:05:09;103045.53;;;2.25;100.00
64298;BME280;50639;53.270;7.956;2023-03-03T06:07:35;102932.16;;;2.16;100.00
64298;BME280;50639;53.270;7.956;2023-03-03T06:10:01;103056.75;;;2.18;100.00
64298;BME280;50639;53.270;7.956;2023-03-03T06:12:29;102968.72;;;2.13;100.00
64298;BME280;50639;53.270;7.956;2023-03-03T06:14:54;102939.75;;;2.10;100.00
64298;BME280;50639;53.270;7.956;2023-03-03T06:17:19;103136.63;;;2.15;100.00
64298;BME280;50639;53.270;7.956;2023-03-03T06:19:45;102957.84;;;2.05;100.00
64298;BME280;50639;53.270;7.956;2023-03-03T06:22:11;103050.72;;;2.05;100.00
64298;BME280;50639;53.270;7.956;2023-03-03T06:24:37;103080.84;;;2.04;100.00
64298;BME280;50639;53.270;7.956;2023-03-03T06:27:02;103179.03;;;2.04;100.00
64298;BME280;50639;53.270;7.956;2023-03-03T06:29:28;103164.09;;;2.03;100.00
64298;BME280;50639;53.270;7.956;2023-03-03T06:31:53;103562.22;;;2.14;100.00
64298;BME280;50639;53.270;7.956;2023-03-03T06:34:19;103589.63;;;2.14;100.00
64298;BME280;50639;53.270;7.956;2023-03-03T06:36:44;103400.75;;;2.08;100.00
64298;BME280;50639;53.270;7.956;2023-03-03T06:39:10;103397.38;;;2.06;100.00
64298;BME280;50639;53.270;7.956;2023-03-03T06:41:35;103515.63;;;2.10;100.00
64298;BME280;50639;53.270;7.956;2023-03-03T06:44:01;103761.94;;;2.17;100.00
64298;BME280;50639;53.270;7.956;2023-03-03T06:46:26;103466.16;;;2.09;100.00
64298;BME280;50639;53.270;7.956;2023-03-03T06:48:52;103568.69;;;2.10;100.00
64298;BME280;50639;53.270;7.956;2023-03-03T06:51:25;103663.19;;;2.12;100.00
64298;BME280;50639;53.270;7.956;2023-03-03T06:53:55;103815.88;;;2.18;100.00
64298;BME280;50639;53.270;7.956;2023-03-03T06:56:22;103840.50;;;2.20;100.00
64298;BME280;50639;53.270;7.956;2023-03-03T06:58:48;103439.81;;;2.06;100.00
64298;BME280;50639;53.270;7.956;2023-03-03T07:01:15;103898.91;;;2.20;100.00
64298;BME280;50639;53.270;7.956;2023-03-03T07:03:41;103825.56;;;2.19;100.00
64298;BME280;50639;53.270;7.956;2023-03-03T07:06:18;103763.81;;;2.15;100.00
64298;BME280;50639;53.270;7.956;2023-03-03T07:08:44;104110.94;;;2.26;100.00
64298;BME280;50639;53.270;7.956;2023-03-03T07:11:10;104353.75;;;2.36;100.00
64298;BME280;50639;53.270;7.956;2023-03-03T07:13:39;104332.41;;;2.37;100.00
64298;BME280;50639;53.270;7.956;2023-03-03T07:16:09;104401.09;;;2.43;100.00
64298;BME280;50639;53.270;7.956;2023-03-03T07:18:39;104394.84;;;2.44;100.00
64298;BME280;50639;53.270;7.956;2023-03-03T07:21:17;104291.44;;;2.41;100.00
64298;BME280;50639;53.270;7.956;2023-03-03T07:23:43;104128.88;;;2.36;100.00
64298;BME280;50639;53.270;7.956;2023-03-03T07:28:48;103901.19;;;2.26;100.00
64298;BME280;50639;53.270;7.956;2023-03-03T07:31:16;104185.66;;;2.34;100.00
64298;BME280;50639;53.270;7.956;2023-03-03T07:33:46;104269.53;;;2.38;100.00
64298;BME280;50639;53.270;7.956;2023-03-03T07:36:28;104158.94;;;2.37;100.00
64298;BME280;50639;53.270;7.956;2023-03-03T07:38:55;103779.28;;;2.23;100.00
64298;BME280;50639;53.270;7.956;2023-03-03T07:41:21;103836.53;;;2.27;100.00
64298;BME280;50639;53.270;7.956;2023-03-03T07:43:50;104226.84;;;2.41;100.00
64298;BME280;50639;53.270;7.956;2023-03-03T07:46:20;104433.47;;;2.50;100.00
64298;BME280;50639;53.270;7.956;2023-03-03T07:48:47;104569.34;;;2.60;100.00
64298;BME280;50639;53.270;7.956;2023-03-03T07:51:20;104669.69;;;2.70;100.00
64298;BME280;50639;53.270;7.956;2023-03-03T07:53:47;104710.97;;;2.77;100.00
64298;BME280;50639;53.270;7.956;2023-03-03T07:56:14;104869.03;;;2.87;100.00
64298;BME280;50639;53.270;7.956;2023-03-03T07:58:41;104752.84;;;2.89;100.00
64298;BME280;50639;53.270;7.956;2023-03-03T08:03:51;104962.06;;;3.04;100.00
64298;BME280;50639;53.270;7.956;2023-03-03T08:11:46;104478.13;;;3.04;100.00
64298;BME280;50639;53.270;7.956;2023-03-03T08:14:14;104518.78;;;3.06;100.00
64298;BME280;50639;53.270;7.956;2023-03-03T08:16:42;104489.47;;;3.08;100.00
64298;BME280;50639;53.270;7.956;2023-03-03T08:19:08;104590.22;;;3.12;100.00
64298;BME280;50639;53.270;7.956;2023-03-03T08:21:35;104646.69;;;3.17;100.00
64298;BME280;50639;53.270;7.956;2023-03-03T08:24:00;104221.69;;;3.10;100.00
64298;BME280;50639;53.270;7.956;2023-03-03T08:26:26;104467.53;;;3.18;100.00
64298;BME280;50639;53.270;7.956;2023-03-03T08:28:51;104692.31;;;3.25;100.00
64298;BME280;50639;53.270;7.956;2023-03-03T08:31:17;105050.50;;;3.44;100.00
64298;BME280;50639;53.270;7.956;2023-03-03T08:33:44;105381.34;;;3.63;100.00
64298;BME280;50639;53.270;7.956;2023-03-03T08:36:10;104444.72;;;3.44;100.00
64298;BME280;50639;53.270;7.956;2023-03-03T08:38:36;104746.47;;;3.56;100.00
64298;BME280;50639;53.270;7.956;2023-03-03T08:41:01;104961.38;;;3.68;100.00
64298;BME280;50639;53.270;7.956;2023-03-03T08:43:27;104848.47;;;3.72;100.00
64298;BME280;50639;53.270;7.956;2023-03-03T08:45:53;104980.22;;;3.80;100.00
64298;BME280;50639;53.270;7.956;2023-03-03T08:48:20;105129.72;;;3.90;100.00
64298;BME280;50639;53.270;7.956;2023-03-03T08:50:45;105260.53;;;4.01;100.00
64298;BME280;50639;53.270;7.956;2023-03-03T08:53:11;105498.59;;;4.17;100.00
64298;BME280;50639;53.270;7.956;2023-03-03T08:55:37;105401.44;;;4.24;100.00
64298;BME280;50639;53.270;7.956;2023-03-03T08:58:03;105413.53;;;4.31;100.00
64298;BME280;50639;53.270;7.956;2023-03-03T09:00:28;105195.94;;;4.30;100.00
64298;BME280;50639;53.270;7.956;2023-03-03T09:02:53;105226.69;;;4.37;100.00
64298;BME280;50639;53.270;7.956;2023-03-03T09:05:19;105223.78;;;4.42;100.00
64298;BME280;50639;53.270;7.956;2023-03-03T09:07:45;105282.00;;;4.49;100.00
64298;BME280;50639;53.270;7.956;2023-03-03T09:10:12;105140.59;;;4.52;100.00
64298;BME280;50639;53.270;7.956;2023-03-03T09:12:40;104798.03;;;4.45;100.00
64298;BME280;50639;53.270;7.956;2023-03-03T09:15:27;105343.25;;;4.68;100.00
64298;BME280;50639;53.270;7.956;2023-03-03T09:17:52;105524.69;;;4.83;100.00
64298;BME280;50639;53.270;7.956;2023-03-03T09:22:46;105067.66;;;4.84;100.00
64298;BME280;50639;53.270;7.956;2023-03-03T09:25:14;105615.34;;;5.02;100.00
64298;BME280;50639;53.270;7.956;2023-03-03T09:27:42;105086.56;;;4.95;100.00
64298;BME280;50639;53.270;7.956;2023-03-03T09:33:15;105367.88;;;5.23;100.00
64298;BME280;50639;53.270;7.956;2023-03-03T09:35:41;105910.25;;;5.49;100.00
64298;BME280;50639;53.270;7.956;2023-03-03T09:38:22;106184.13;;;5.76;100.00
64298;BME280;50639;53.270;7.956;2023-03-03T09:58:40;105930.94;;;6.20;100.00
64298;BME280;50639;53.270;7.956;2023-03-03T10:08:54;105730.78;;;6.47;100.00
64298;BME280;50639;53.270;7.956;2023-03-03T10:19:40;105179.28;;;6.70;100.00
64298;BME280;50639;53.270;7.956;2023-03-03T10:22:17;105044.59;;;6.71;100.00
64298;BME280;50639;53.270;7.956;2023-03-03T10:25:03;104922.38;;;6.71;100.00
64298;BME280;50639;53.270;7.956;2023-03-03T10:30:02;104873.81;;;6.78;100.00
64298;BME280;50639;53.270;7.956;2023-03-03T10:53:48;104736.00;;;7.10;100.00
64298;BME280;50639;53.270;7.956;2023-03-03T10:56:22;104814.34;;;7.12;100.00
64298;BME280;50639;53.270;7.956;2023-03-03T10:59:00;104228.34;;;6.99;100.00
64298;BME280;50639;53.270;7.956;2023-03-03T11:09:26;104877.94;;;7.33;100.00
64298;BME280;50639;53.270;7.956;2023-03-03T11:12:40;105062.81;;;7.44;100.00
64298;BME280;50639;53.270;7.956;2023-03-03T11:14:49;105134.31;;;7.56;100.00
64298;BME280;50639;53.270;7.956;2023-03-03T11:17:22;105351.38;;;7.69;100.00
64298;BME280;50639;53.270;7.956;2023-03-03T11:19:53;105407.84;;;7.80;100.00
64298;BME280;50639;53.270;7.956;2023-03-03T11:22:29;105812.66;;;8.08;100.00
64298;BME280;50639;53.270;7.956;2023-03-03T11:27:59;105414.84;;;8.09;100.00
64298;BME280;50639;53.270;7.956;2023-03-03T11:33:01;105636.78;;;8.34;100.00
64298;BME280;50639;53.270;7.956;2023-03-03T11:35:34;104891.03;;;8.23;100.00
64298;BME280;50639;53.270;7.956;2023-03-03T11:43:20;105669.81;;;8.63;100.00
64298;BME280;50639;53.270;7.956;2023-03-03T11:45:51;104747.91;;;8.36;100.00
64298;BME280;50639;53.270;7.956;2023-03-03T11:48:35;104294.72;;;8.25;100.00
64298;BME280;50639;53.270;7.956;2023-03-03T11:51:11;103297.00;;;7.95;100.00
64298;BME280;50639;53.270;7.956;2023-03-03T11:56:22;103788.41;;;8.11;100.00
64298;BME280;50639;53.270;7.956;2023-03-03T11:59:08;104156.41;;;8.23;100.00
64298;BME280;50639;53.270;7.956;2023-03-03T12:01:40;104623.19;;;8.42;100.00
64298;BME280;50639;53.270;7.956;2023-03-03T12:04:13;104541.63;;;8.45;100.00
64298;BME280;50639;53.270;7.956;2023-03-03T12:06:52;104619.78;;;8.51;100.00
64298;BME280;50639;53.270;7.956;2023-03-03T12:12:13;105063.47;;;8.85;100.00
64298;BME280;50639;53.270;7.956;2023-03-03T12:14:49;104772.88;;;8.83;100.00
64298;BME280;50639;53.270;7.956;2023-03-03T12:22:31;104732.88;;;9.02;100.00
64298;BME280;50639;53.270;7.956;2023-03-03T12:35:25;105011.81;;;9.29;100.00
64298;BME280;50639;53.270;7.956;2023-03-03T12:41:06;105125.56;;;9.51;100.00
64298;BME280;50639;53.270;7.956;2023-03-03T12:48:51;103582.56;;;9.25;100.00
64298;BME280;50639;53.270;7.956;2023-03-03T12:53:48;102758.28;;;8.94;100.00
64298;BME280;50639;53.270;7.956;2023-03-03T12:56:17;102241.47;;;8.64;100.00
64298;BME280;50639;53.270;7.956;2023-03-03T12:58:50;102463.88;;;8.66;100.00
64298;BME280;50639;53.270;7.956;2023-03-03T13:04:07;102505.97;;;8.57;100.00
64298;BME280;50639;53.270;7.956;2023-03-03T13:06:39;102321.22;;;8.48;100.00
64298;BME280;50639;53.270;7.956;2023-03-03T13:11:50;102870.13;;;8.54;100.00
64298;BME280;50639;53.270;7.956;2023-03-03T13:14:30;102632.31;;;8.46;100.00
64298;BME280;50639;53.270;7.956;2023-03-03T13:17:06;102804.72;;;8.47;100.00
64298;BME280;50639;53.270;7.956;2023-03-03T13:19:40;102835.06;;;8.47;100.00
64298;BME280;50639;53.270;7.956;2023-03-03T13:22:17;103242.31;;;8.58;100.00
64298;BME280;50639;53.270;7.956;2023-03-03T13:24:53;103352.53;;;8.65;100.00
64298;BME280;50639;53.270;7.956;2023-03-03T13:27:24;103710.78;;;8.77;100.00
64298;BME280;50639;53.270;7.956;2023-03-03T13:29:57;102940.63;;;8.54;100.00
64298;BME280;50639;53.270;7.956;2023-03-03T13:35:17;103516.44;;;8.62;100.00
64298;BME280;50639;53.270;7.956;2023-03-03T13:37:48;103739.31;;;8.68;100.00
64298;BME280;50639;53.270;7.956;2023-03-03T13:40:21;103947.16;;;8.74;100.00
64298;BME280;50639;53.270;7.956;2023-03-03T13:45:24;103837.00;;;8.85;100.00
64298;BME280;50639;53.270;7.956;2023-03-03T13:47:54;102897.25;;;8.59;100.00
64298;BME280;50639;53.270;7.956;2023-03-03T13:50:30;103781.66;;;8.84;100.00
64298;BME280;50639;53.270;7.956;2023-03-03T13:55:35;104078.00;;;9.10;100.00
64298;BME280;50639;53.270;7.956;2023-03-03T13:58:24;103797.13;;;9.09;100.00
64298;BME280;50639;53.270;7.956;2023-03-03T14:01:05;103655.53;;;9.11;100.00
64298;BME280;50639;53.270;7.956;2023-03-03T14:03:54;103055.63;;;8.99;100.00
64298;BME280;50639;53.270;7.956;2023-03-03T14:06:27;102465.63;;;8.81;100.00
64298;BME280;50639;53.270;7.956;2023-03-03T14:08:54;102656.72;;;8.83;100.00
64298;BME280;50639;53.270;7.956;2023-03-03T14:11:34;102129.53;;;8.66;100.00
64298;BME280;50639;53.270;7.956;2023-03-03T14:14:12;103075.91;;;8.93;100.00
64298;BME280;50639;53.270;7.956;2023-03-03T14:19:13;103286.16;;;9.10;100.00
64298;BME280;50639;53.270;7.956;2023-03-03T14:24:25;102413.13;;;8.87;100.00
64298;BME280;50639;53.270;7.956;2023-03-03T14:26:52;102706.50;;;8.94;100.00
64298;BME280;50639;53.270;7.956;2023-03-03T14:31:56;103100.63;;;9.13;100.00
64298;BME280;50639;53.270;7.956;2023-03-03T14:36:47;102756.13;;;9.06;100.00
64298;BME280;50639;53.270;7.956;2023-03-03T14:39:24;101673.19;;;8.71;100.00
64298;BME280;50639;53.270;7.956;2023-03-03T14:41:53;101482.16;;;8.56;100.00
64298;BME280;50639;53.270;7.956;2023-03-03T14:44:28;101657.78;;;8.52;100.00
64298;BME280;50639;53.270;7.956;2023-03-03T14:49:35;102059.44;;;8.55;100.00
64298;BME280;50639;53.270;7.956;2023-03-03T14:54:36;102870.81;;;8.80;100.00
64298;BME280;50639;53.270;7.956;2023-03-03T14:57:06;102576.47;;;8.74;100.00
64298;BME280;50639;53.270;7.956;2023-03-03T14:59:36;102884.91;;;8.82;100.00
64298;BME280;50639;53.270;7.956;2023-03-03T15:02:09;102562.91;;;8.67;100.00
64298;BME280;50639;53.270;7.956;2023-03-03T15:04:46;102567.94;;;8.62;100.00
64298;BME280;50639;53.270;7.956;2023-03-03T15:09:49;101713.94;;;8.24;100.00
64298;BME280;50639;53.270;7.956;2023-03-03T15:25:21;102213.25;;;8.08;100.00
64298;BME280;50639;53.270;7.956;2023-03-03T15:27:51;102611.38;;;8.17;100.00
64298;BME280;50639;53.270;7.956;2023-03-03T15:32:55;102311.75;;;7.98;100.00
64298;BME280;50639;53.270;7.956;2023-03-03T15:38:12;103270.69;;;8.25;100.00
64298;BME280;50639;53.270;7.956;2023-03-03T15:40:47;102163.81;;;7.88;100.00
64298;BME280;50639;53.270;7.956;2023-03-03T15:46:01;102960.31;;;8.03;100.00
64298;BME280;50639;53.270;7.956;2023-03-03T15:48:52;102904.38;;;8.00;100.00
64298;BME280;50639;53.270;7.956;2023-03-03T15:58:47;102275.41;;;7.57;100.00
64298;BME280;50639;53.270;7.956;2023-03-03T16:03:50;102225.97;;;7.37;100.00
64298;BME280;50639;53.270;7.956;2023-03-03T16:06:23;102223.31;;;7.29;100.00
64298;BME280;50639;53.270;7.956;2023-03-03T16:16:17;102950.94;;;7.48;100.00
64298;BME280;50639;53.270;7.956;2023-03-03T16:18:51;102958.09;;;7.47;100.00
64298;BME280;50639;53.270;7.956;2023-03-03T16:23:47;103076.56;;;7.49;100.00
64298;BME280;50639;53.270;7.956;2023-03-03T16:39:01;103398.47;;;7.61;100.00
64298;BME280;50639;53.270;7.956;2023-03-03T16:44:21;103356.63;;;7.60;100.00
64298;BME280;50639;53.270;7.956;2023-03-03T16:46:52;103260.53;;;7.57;100.00